sensor_id;sensor_type;location;lat;lon;timestamp;pressure;altitude;pressure_sealevel;temperature;humidity
41202;BME280;26936;50.524;8.684;2022-11-20T00:00:56;98983.13;;;-0.55;100.00
41202;BME280;26936;50.524;8.684;2022-11-20T00:03:21;98983.50;;;-0.60;100.00
41202;BME280;26936;50.524;8.684;2022-11-20T00:05:47;98994.97;;;-0.58;100.00
41202;BME280;26936;50.524;8.684;2022-11-20T00:08:12;99000.13;;;-0.56;100.00
41202;BME280;26936;50.524;8.684;2022-11-20T00:10:39;99001.69;;;-0.55;100.00
41202;BME280;26936;50.524;8.684;2022-11-20T00:13:05;98990.59;;;-0.59;100.00
41202;BME280;26936;50.524;8.684;2022-11-20T00:15:30;98993.38;;;-0.59;100.00
41202;BME280;26936;50.524;8.684;2022-11-20T00:17:56;98996.56;;;-0.53;100.00
41202;BME280;26936;50.524;8.684;2022-11-20T00:20:21;99002.13;;;-0.50;100.00
41202;BME280;26936;50.524;8.684;2022-11-20T00:22:47;98993.81;;;-0.50;100.00
41202;BME280;26936;50.524;8.684;2022-11-20T00:25:12;98990.28;;;-0.47;100.00
41202;BME280;26936;50.524;8.684;2022-11-20T00:27:37;98980.41;;;-0.44;100.00
41202;BME280;26936;50.524;8.684;2022-11-20T00:30:04;98985.56;;;-0.39;100.00
41202;BME280;26936;50.524;8.684;2022-11-20T00:32:29;98974.09;;;-0.41;100.00
41202;BME280;26936;50.524;8.684;2022-11-20T00:34:55;98980.81;;;-0.39;100.00
41202;BME280;26936;50.524;8.684;2022-11-20T00:37:20;98988.75;;;-0.34;100.00
41202;BME280;26936;50.524;8.684;2022-11-20T00:39:45;98991.09;;;-0.36;100.00
41202;BME280;26936;50.524;8.684;2022-11-20T00:42:10;98980.06;;;-0.32;100.00
41202;BME280;26936;50.524;8.684;2022-11-20T00:44:36;98983.63;;;-0.32;100.00
41202;BME280;26936;50.524;8.684;2022-11-20T00:47:01;98975.72;;;-0.30;100.00
41202;BME280;26936;50.524;8.684;2022-11-20T00:49:26;98974.56;;;-0.25;100.00
41202;BME280;26936;50.524;8.684;2022-11-20T00:51:51;98984.81;;;-0.26;100.00
41202;BME280;26936;50.524;8.684;2022-11-20T00:54:17;98978.50;;;-0.23;100.00
41202;BME280;26936;50.524;8.684;2022-11-20T00:56:42;98972.59;;;-0.25;100.00
41202;BME280;26936;50.524;8.684;2022-11-20T00:59:08;98967.84;;;-0.17;100.00
41202;BME280;26936;50.524;8.684;2022-11-20T01:01:35;98969.41;;;-0.20;100.00
41202;BME280;26936;50.524;8.684;2022-11-20T01:04:01;98969.81;;;-0.21;100.00
41202;BME280;26936;50.524;8.684;2022-11-20T01:06:28;98979.72;;;-0.20;100.00
41202;BME280;26936;50.524;8.684;2022-11-20T01:08:57;98959.53;;;-0.17;100.00
41202;BME280;26936;50.524;8.684;2022-11-20T01:11:28;98960.34;;;-0.17;100.00
41202;BME280;26936;50.524;8.684;2022-11-20T01:13:55;98965.09;;;-0.14;100.00
41202;BME280;26936;50.524;8.684;2022-11-20T01:18:55;98972.19;;;-0.16;100.00
41202;BME280;26936;50.524;8.684;2022-11-20T01:23:51;98959.56;;;-0.14;100.00
41202;BME280;26936;50.524;8.684;2022-11-20T01:26:21;98957.97;;;-0.11;100.00
41202;BME280;26936;50.524;8.684;2022-11-20T01:28:47;98956.38;;;-0.16;100.00
41202;BME280;26936;50.524;8.684;2022-11-20T01:31:16;98976.13;;;-0.21;100.00
41202;BME280;26936;50.524;8.684;2022-11-20T01:33:42;98963.09;;;-0.20;100.00
41202;BME280;26936;50.524;8.684;2022-11-20T01:36:09;98964.28;;;-0.21;100.00
41202;BME280;26936;50.524;8.684;2022-11-20T01:38:34;98966.66;;;-0.16;100.00
41202;BME280;26936;50.524;8.684;2022-11-20T01:41:00;98974.97;;;-0.13;100.00
41202;BME280;26936;50.524;8.684;2022-11-20T01:43:26;98976.16;;;-0.14;100.00
41202;BME280;26936;50.524;8.684;2022-11-20T01:48:22;98966.69;;;-0.09;100.00
41202;BME280;26936;50.524;8.684;2022-11-20T01:50:49;98973.41;;;0.00;100.00
41202;BME280;26936;50.524;8.684;2022-11-20T01:53:18;98965.91;;;0.01;100.00
41202;BME280;26936;50.524;8.684;2022-11-20T01:55:49;98969.88;;;-0.04;100.00
41202;BME280;26936;50.524;8.684;2022-11-20T01:58:22;98974.22;;;0.05;100.00
41202;BME280;26936;50.524;8.684;2022-11-20T02:00:50;98973.03;;;0.06;100.00
41202;BME280;26936;50.524;8.684;2022-11-20T02:03:17;98967.50;;;0.06;100.00
41202;BME280;26936;50.524;8.684;2022-11-20T02:05:53;98973.84;;;0.06;100.00
41202;BME280;26936;50.524;8.684;2022-11-20T02:08:21;98971.06;;;0.06;100.00
41202;BME280;26936;50.524;8.684;2022-11-20T02:10:47;98967.91;;;0.04;100.00
41202;BME280;26936;50.524;8.684;2022-11-20T02:13:12;98962.34;;;0.04;100.00
41202;BME280;26936;50.524;8.684;2022-11-20T02:15:56;98955.66;;;0.02;100.00
41202;BME280;26936;50.524;8.684;2022-11-20T02:18:22;98946.16;;;0.06;100.00
41202;BME280;26936;50.524;8.684;2022-11-20T02:20:50;98948.50;;;0.00;100.00
41202;BME280;26936;50.524;8.684;2022-11-20T02:25:46;98948.09;;;-0.02;100.00
41202;BME280;26936;50.524;8.684;2022-11-20T02:28:12;98944.97;;;0.00;100.00
41202;BME280;26936;50.524;8.684;2022-11-20T02:30:37;98934.25;;;-0.02;100.00
41202;BME280;26936;50.524;8.684;2022-11-20T02:33:03;98932.28;;;-0.05;100.00
41202;BME280;26936;50.524;8.684;2022-11-20T02:37:54;98931.13;;;-0.04;100.00
41202;BME280;26936;50.524;8.684;2022-11-20T02:40:20;98923.97;;;-0.01;100.00
41202;BME280;26936;50.524;8.684;2022-11-20T02:42:45;98924.78;;;-0.01;100.00
41202;BME280;26936;50.524;8.684;2022-11-20T02:45:12;98922.00;;;-0.04;100.00
41202;BME280;26936;50.524;8.684;2022-11-20T02:47:37;98918.84;;;0.01;100.00
41202;BME280;26936;50.524;8.684;2022-11-20T02:50:03;98932.28;;;-0.01;100.00
41202;BME280;26936;50.524;8.684;2022-11-20T02:52:29;98942.97;;;-0.10;100.00
41202;BME280;26936;50.524;8.684;2022-11-20T02:54:55;98952.88;;;-0.02;100.00
41202;BME280;26936;50.524;8.684;2022-11-20T02:57:20;98935.47;;;0.01;100.00
41202;BME280;26936;50.524;8.684;2022-11-20T02:59:45;98956.03;;;0.07;100.00
41202;BME280;26936;50.524;8.684;2022-11-20T03:02:10;98954.47;;;0.06;100.00
41202;BME280;26936;50.524;8.684;2022-11-20T03:04:36;98944.94;;;0.03;100.00
41202;BME280;26936;50.524;8.684;2022-11-20T03:07:01;98944.56;;;0.05;100.00
41202;BME280;26936;50.524;8.684;2022-11-20T03:09:27;98935.47;;;0.08;100.00
41202;BME280;26936;50.524;8.684;2022-11-20T03:11:52;98929.94;;;0.05;100.00
41202;BME280;26936;50.524;8.684;2022-11-20T03:14:17;98934.66;;;0.04;100.00
41202;BME280;26936;50.524;8.684;2022-11-20T03:16:43;98938.66;;;0.07;100.00
41202;BME280;26936;50.524;8.684;2022-11-20T03:19:08;98930.72;;;0.05;100.00
41202;BME280;26936;50.524;8.684;2022-11-20T03:21:34;98931.91;;;0.08;100.00
41202;BME280;26936;50.524;8.684;2022-11-20T03:23:59;98930.31;;;0.10;100.00
41202;BME280;26936;50.524;8.684;2022-11-20T03:26:26;98920.84;;;0.11;100.00
41202;BME280;26936;50.524;8.684;2022-11-20T03:28:57;98920.03;;;0.11;100.00
41202;BME280;26936;50.524;8.684;2022-11-20T03:31:28;98908.97;;;0.11;100.00
41202;BME280;26936;50.524;8.684;2022-11-20T03:33:55;98904.22;;;0.04;100.00
41202;BME280;26936;50.524;8.684;2022-11-20T03:36:21;98888.03;;;0.10;100.00
41202;BME280;26936;50.524;8.684;2022-11-20T03:38:47;98895.91;;;0.04;100.00
41202;BME280;26936;50.524;8.684;2022-11-20T03:41:18;98880.91;;;0.02;100.00
41202;BME280;26936;50.524;8.684;2022-11-20T03:43:51;98884.44;;;0.02;100.00
41202;BME280;26936;50.524;8.684;2022-11-20T03:46:17;98899.06;;;-0.05;100.00
41202;BME280;26936;50.524;8.684;2022-11-20T03:48:43;98906.97;;;-0.03;100.00
41202;BME280;26936;50.524;8.684;2022-11-20T03:53:33;98904.63;;;0.03;100.00
41202;BME280;26936;50.524;8.684;2022-11-20T03:55:59;98909.75;;;0.04;100.00
41202;BME280;26936;50.524;8.684;2022-11-20T03:58:24;98913.72;;;0.07;100.00
41202;BME280;26936;50.524;8.684;2022-11-20T04:00:49;98906.59;;;0.13;100.00
41202;BME280;26936;50.524;8.684;2022-11-20T04:03:15;98910.94;;;0.10;100.00
41202;BME280;26936;50.524;8.684;2022-11-20T04:05:40;98906.59;;;0.06;100.00
41202;BME280;26936;50.524;8.684;2022-11-20T04:08:05;98909.38;;;0.13;100.00
41202;BME280;26936;50.524;8.684;2022-11-20T04:10:30;98891.56;;;0.10;100.00
41202;BME280;26936;50.524;8.684;2022-11-20T04:12:56;98894.31;;;0.10;100.00
41202;BME280;26936;50.524;8.684;2022-11-20T04:15:21;98889.59;;;0.11;100.00
41202;BME280;26936;50.524;8.684;2022-11-20T04:17:46;98884.84;;;0.08;100.00
41202;BME280;26936;50.524;8.684;2022-11-20T04:20:11;98880.88;;;0.09;100.00
41202;BME280;26936;50.524;8.684;2022-11-20T04:22:37;98876.53;;;0.11;100.00
41202;BME280;26936;50.524;8.684;2022-11-20T04:25:02;98874.53;;;0.12;100.00
41202;BME280;26936;50.524;8.684;2022-11-20T04:27:28;98870.63;;;0.13;100.00
41202;BME280;26936;50.524;8.684;2022-11-20T04:29:53;98887.63;;;0.11;100.00
41202;BME280;26936;50.524;8.684;2022-11-20T04:32:18;98891.56;;;0.10;100.00
41202;BME280;26936;50.524;8.684;2022-11-20T04:34:44;98892.34;;;0.11;100.00
41202;BME280;26936;50.524;8.684;2022-11-20T04:37:09;98885.63;;;0.12;100.00
41202;BME280;26936;50.524;8.684;2022-11-20T04:39:34;98882.47;;;0.10;100.00
41202;BME280;26936;50.524;8.684;2022-11-20T04:41:59;98880.88;;;0.12;100.00
41202;BME280;26936;50.524;8.684;2022-11-20T04:44:43;98884.06;;;0.18;100.00
41202;BME280;26936;50.524;8.684;2022-11-20T04:47:08;98872.59;;;0.16;100.00
41202;BME280;26936;50.524;8.684;2022-11-20T04:49:34;98863.06;;;0.17;100.00
41202;BME280;26936;50.524;8.684;2022-11-20T04:51:59;98860.31;;;0.17;100.00
41202;BME280;26936;50.524;8.684;2022-11-20T04:54:24;98855.97;;;0.12;100.00
41202;BME280;26936;50.524;8.684;2022-11-20T04:56:50;98877.72;;;0.14;100.00
41202;BME280;26936;50.524;8.684;2022-11-20T04:59:15;98889.19;;;0.09;100.00
41202;BME280;26936;50.524;8.684;2022-11-20T05:01:41;98906.56;;;-0.02;100.00
41202;BME280;26936;50.524;8.684;2022-11-20T05:04:06;98899.88;;;-0.04;100.00
41202;BME280;26936;50.524;8.684;2022-11-20T05:06:31;98898.66;;;-0.03;100.00
41202;BME280;26936;50.524;8.684;2022-11-20T05:08:57;98900.28;;;0.02;100.00
41202;BME280;26936;50.524;8.684;2022-11-20T05:11:23;98900.66;;;0.03;100.00
41202;BME280;26936;50.524;8.684;2022-11-20T05:13:49;98890.78;;;0.10;100.00
41202;BME280;26936;50.524;8.684;2022-11-20T05:16:17;98895.94;;;0.11;100.00
41202;BME280;26936;50.524;8.684;2022-11-20T05:18:43;98884.84;;;0.15;100.00
41202;BME280;26936;50.524;8.684;2022-11-20T05:21:09;98897.09;;;0.17;100.00
41202;BME280;26936;50.524;8.684;2022-11-20T05:23:35;98891.56;;;0.21;100.00
41202;BME280;26936;50.524;8.684;2022-11-20T05:26:01;98895.50;;;0.23;100.00
41202;BME280;26936;50.524;8.684;2022-11-20T05:28:28;98898.69;;;0.22;100.00
41202;BME280;26936;50.524;8.684;2022-11-20T05:30:54;98886.44;;;0.19;100.00
41202;BME280;26936;50.524;8.684;2022-11-20T05:33:19;98900.28;;;0.23;100.00
41202;BME280;26936;50.524;8.684;2022-11-20T05:35:44;98889.22;;;0.26;100.00
41202;BME280;26936;50.524;8.684;2022-11-20T05:38:10;98883.66;;;0.23;100.00
41202;BME280;26936;50.524;8.684;2022-11-20T05:40:35;98886.44;;;0.26;100.00
41202;BME280;26936;50.524;8.684;2022-11-20T05:43:01;98883.28;;;0.28;100.00
41202;BME280;26936;50.524;8.684;2022-11-20T05:45:27;98874.16;;;0.27;100.00
41202;BME280;26936;50.524;8.684;2022-11-20T05:47:52;98877.72;;;0.21;100.00
41202;BME280;26936;50.524;8.684;2022-11-20T05:50:18;98857.53;;;0.31;100.00
41202;BME280;26936;50.524;8.684;2022-11-20T05:52:43;98854.38;;;0.25;100.00
41202;BME280;26936;50.524;8.684;2022-11-20T05:55:08;98840.50;;;0.43;100.00
41202;BME280;26936;50.524;8.684;2022-11-20T05:57:34;98851.59;;;0.29;100.00
41202;BME280;26936;50.524;8.684;2022-11-20T05:59:59;98854.78;;;0.17;100.00
41202;BME280;26936;50.524;8.684;2022-11-20T06:02:24;98838.97;;;0.07;100.00
41202;BME280;26936;50.524;8.684;2022-11-20T06:04:50;98838.97;;;0.07;100.00
41202;BME280;26936;50.524;8.684;2022-11-20T06:07:15;98846.88;;;0.05;100.00
41202;BME280;26936;50.524;8.684;2022-11-20T06:09:40;98850.81;;;0.07;100.00
41202;BME280;26936;50.524;8.684;2022-11-20T06:12:06;98855.97;;;0.12;100.00
41202;BME280;26936;50.524;8.684;2022-11-20T06:14:32;98862.72;;;0.15;100.00
41202;BME280;26936;50.524;8.684;2022-11-20T06:16:57;98865.84;;;0.20;100.00
41202;BME280;26936;50.524;8.684;2022-11-20T06:19:23;98866.66;;;0.21;100.00
41202;BME280;26936;50.524;8.684;2022-11-20T06:21:49;98860.72;;;0.26;100.00
41202;BME280;26936;50.524;8.684;2022-11-20T06:24:15;98865.44;;;0.25;100.00
41202;BME280;26936;50.524;8.684;2022-11-20T06:26:40;98857.53;;;0.27;100.00
41202;BME280;26936;50.524;8.684;2022-11-20T06:29:06;98868.22;;;0.29;100.00
41202;BME280;26936;50.524;8.684;2022-11-20T06:31:31;98861.09;;;0.31;100.00
41202;BME280;26936;50.524;8.684;2022-11-20T06:34:05;98861.47;;;0.30;100.00
41202;BME280;26936;50.524;8.684;2022-11-20T06:36:31;98852.81;;;0.28;100.00
41202;BME280;26936;50.524;8.684;2022-11-20T06:38:57;98845.28;;;0.32;100.00
41202;BME280;26936;50.524;8.684;2022-11-20T06:41:22;98837.75;;;0.32;100.00
41202;BME280;26936;50.524;8.684;2022-11-20T06:43:48;98853.56;;;0.28;100.00
41202;BME280;26936;50.524;8.684;2022-11-20T06:46:14;98847.63;;;0.30;100.00
41202;BME280;26936;50.524;8.684;2022-11-20T06:48:42;98853.97;;;0.23;100.00
41202;BME280;26936;50.524;8.684;2022-11-20T06:51:08;98861.50;;;0.19;100.00
41202;BME280;26936;50.524;8.684;2022-11-20T06:53:34;98865.44;;;0.25;100.00
41202;BME280;26936;50.524;8.684;2022-11-20T06:55:59;98853.97;;;0.27;100.00
41202;BME280;26936;50.524;8.684;2022-11-20T06:58:29;98853.97;;;0.27;100.00
41202;BME280;26936;50.524;8.684;2022-11-20T07:01:02;98853.97;;;0.27;100.00
41202;BME280;26936;50.524;8.684;2022-11-20T07:03:28;98850.03;;;0.28;100.00
41202;BME280;26936;50.524;8.684;2022-11-20T07:05:57;98837.34;;;0.30;100.00
41202;BME280;26936;50.524;8.684;2022-11-20T07:08:24;98842.91;;;0.30;100.00
41202;BME280;26936;50.524;8.684;2022-11-20T07:10:49;98842.50;;;0.32;100.00
41202;BME280;26936;50.524;8.684;2022-11-20T07:13:15;98844.09;;;0.29;100.00
41202;BME280;26936;50.524;8.684;2022-11-20T07:15:40;98848.03;;;0.35;100.00
41202;BME280;26936;50.524;8.684;2022-11-20T07:18:05;98860.28;;;0.41;100.00
41202;BME280;26936;50.524;8.684;2022-11-20T07:20:30;98865.03;;;0.44;100.00
41202;BME280;26936;50.524;8.684;2022-11-20T07:22:57;98868.19;;;0.46;100.00
41202;BME280;26936;50.524;8.684;2022-11-20T07:25:23;98865.44;;;0.53;100.00
41202;BME280;26936;50.524;8.684;2022-11-20T07:27:49;98870.97;;;0.53;100.00
41202;BME280;26936;50.524;8.684;2022-11-20T07:30:15;98870.16;;;0.60;100.00
41202;BME280;26936;50.524;8.684;2022-11-20T07:32:40;98867.78;;;0.62;100.00
41202;BME280;26936;50.524;8.684;2022-11-20T07:35:06;98873.31;;;0.65;100.00
41202;BME280;26936;50.524;8.684;2022-11-20T07:37:34;98878.06;;;0.65;100.00
41202;BME280;26936;50.524;8.684;2022-11-20T07:39:59;98878.47;;;0.63;100.00
41202;BME280;26936;50.524;8.684;2022-11-20T07:42:24;98871.31;;;0.66;100.00
41202;BME280;26936;50.524;8.684;2022-11-20T07:44:50;98880.44;;;0.66;100.00
41202;BME280;26936;50.524;8.684;2022-11-20T07:47:15;98889.91;;;0.72;100.00
41202;BME280;26936;50.524;8.684;2022-11-20T07:49:41;98889.13;;;0.79;100.00
41202;BME280;26936;50.524;8.684;2022-11-20T07:52:06;98885.94;;;0.87;100.00
41202;BME280;26936;50.524;8.684;2022-11-20T07:54:31;98892.63;;;0.90;100.00
41202;BME280;26936;50.524;8.684;2022-11-20T07:56:56;98886.72;;;0.91;100.00
41202;BME280;26936;50.524;8.684;2022-11-20T07:59:22;98885.13;;;0.94;100.00
41202;BME280;26936;50.524;8.684;2022-11-20T08:01:47;98891.47;;;0.91;100.00
41202;BME280;26936;50.524;8.684;2022-11-20T08:04:12;98888.69;;;0.98;100.00
41202;BME280;26936;50.524;8.684;2022-11-20T08:06:37;98887.06;;;1.04;100.00
41202;BME280;26936;50.524;8.684;2022-11-20T08:09:03;98899.31;;;1.10;100.00
41202;BME280;26936;50.524;8.684;2022-11-20T08:11:28;98891.78;;;1.14;100.00
41202;BME280;26936;50.524;8.684;2022-11-20T08:14:12;98888.97;;;1.21;100.00
41202;BME280;26936;50.524;8.684;2022-11-20T08:16:44;98888.56;;;1.22;100.00
41202;BME280;26936;50.524;8.684;2022-11-20T08:19:09;98890.16;;;1.23;100.00
41202;BME280;26936;50.524;8.684;2022-11-20T08:21:35;98887.38;;;1.30;100.00
41202;BME280;26936;50.524;8.684;2022-11-20T08:24:00;98893.69;;;1.27;100.00
41202;BME280;26936;50.524;8.684;2022-11-20T08:26:26;98884.16;;;1.35;100.00
41202;BME280;26936;50.524;8.684;2022-11-20T08:28:56;98887.69;;;1.47;100.00
41202;BME280;26936;50.524;8.684;2022-11-20T08:31:22;98895.59;;;1.48;100.00
41202;BME280;26936;50.524;8.684;2022-11-20T08:33:48;98911.06;;;1.46;100.00
41202;BME280;26936;50.524;8.684;2022-11-20T08:36:13;98895.59;;;1.52;100.00
41202;BME280;26936;50.524;8.684;2022-11-20T08:38:38;98898.72;;;1.54;100.00
41202;BME280;26936;50.524;8.684;2022-11-20T08:41:05;98897.53;;;1.58;100.00
41202;BME280;26936;50.524;8.684;2022-11-20T08:43:52;98905.06;;;1.54;100.00
41202;BME280;26936;50.524;8.684;2022-11-20T08:46:18;98908.28;;;1.46;100.00
41202;BME280;26936;50.524;8.684;2022-11-20T08:48:44;98907.84;;;1.58;100.00
41202;BME280;26936;50.524;8.684;2022-11-20T08:51:10;98915.00;;;1.52;100.00
41202;BME280;26936;50.524;8.684;2022-11-20T08:53:36;98905.47;;;1.60;100.00
41202;BME280;26936;50.524;8.684;2022-11-20T08:56:01;98914.97;;;1.59;100.00
41202;BME280;26936;50.524;8.684;2022-11-20T08:58:27;98915.78;;;1.56;100.00
41202;BME280;26936;50.524;8.684;2022-11-20T09:00:52;98918.16;;;1.54;100.00
41202;BME280;26936;50.524;8.684;2022-11-20T09:03:17;98919.75;;;1.51;100.00
41202;BME280;26936;50.524;8.684;2022-11-20T09:05:43;98923.28;;;1.55;100.00
41202;BME280;26936;50.524;8.684;2022-11-20T09:08:08;98922.88;;;1.64;100.00
41202;BME280;26936;50.524;8.684;2022-11-20T09:10:34;98920.09;;;1.64;100.00
41202;BME280;26936;50.524;8.684;2022-11-20T09:12:59;98922.88;;;1.64;100.00
41202;BME280;26936;50.524;8.684;2022-11-20T09:15:25;98930.78;;;1.62;100.00
41202;BME280;26936;50.524;8.684;2022-11-20T09:17:55;98935.16;;;1.70;100.00
41202;BME280;26936;50.524;8.684;2022-11-20T09:20:21;98931.59;;;1.62;100.00
41202;BME280;26936;50.524;8.684;2022-11-20T09:22:47;98926.75;;;1.80;100.00
41202;BME280;26936;50.524;8.684;2022-11-20T09:25:12;98931.91;;;1.78;100.00
41202;BME280;26936;50.524;8.684;2022-11-20T09:27:37;98923.94;;;1.87;100.00
41202;BME280;26936;50.524;8.684;2022-11-20T09:30:03;98923.50;;;1.92;100.00
41202;BME280;26936;50.524;8.684;2022-11-20T09:32:28;98925.88;;;1.94;100.00
41202;BME280;26936;50.524;8.684;2022-11-20T09:34:54;98930.59;;;2.00;100.00
41202;BME280;26936;50.524;8.684;2022-11-20T09:37:19;98925.38;;;2.06;100.00
41202;BME280;26936;50.524;8.684;2022-11-20T09:39:44;98935.31;;;2.07;100.00
41202;BME280;26936;50.524;8.684;2022-11-20T09:45:35;98931.66;;;2.17;100.00
41202;BME280;26936;50.524;8.684;2022-11-20T09:56:08;98923.00;;;2.08;100.00
41202;BME280;26936;50.524;8.684;2022-11-20T09:58:41;98916.63;;;2.11;100.00
41202;BME280;26936;50.524;8.684;2022-11-20T10:01:14;98918.25;;;2.08;100.00
41202;BME280;26936;50.524;8.684;2022-11-20T10:03:57;98908.69;;;2.13;100.00
41202;BME280;26936;50.524;8.684;2022-11-20T10:07:02;98917.78;;;2.17;100.00
41202;BME280;26936;50.524;8.684;2022-11-20T10:09:32;98919.34;;;2.21;100.00
41202;BME280;26936;50.524;8.684;2022-11-20T10:21:09;98916.16;;;2.23;100.00
41202;BME280;26936;50.524;8.684;2022-11-20T10:24:00;98906.16;;;2.29;100.00
41202;BME280;26936;50.524;8.684;2022-11-20T10:26:43;98910.91;;;2.32;100.00
41202;BME280;26936;50.524;8.684;2022-11-20T10:29:12;98912.94;;;2.28;100.00
41202;BME280;26936;50.524;8.684;2022-11-20T10:31:39;98900.69;;;2.22;100.00
41202;BME280;26936;50.524;8.684;2022-11-20T10:34:15;98900.28;;;2.23;100.00
41202;BME280;26936;50.524;8.684;2022-11-20T10:36:50;98898.28;;;2.20;100.00
41202;BME280;26936;50.524;8.684;2022-11-20T10:39:28;98900.28;;;2.23;100.00
41202;BME280;26936;50.524;8.684;2022-11-20T10:41:56;98895.88;;;2.26;100.00
41202;BME280;26936;50.524;8.684;2022-11-20T10:44:26;98890.72;;;2.24;100.00
41202;BME280;26936;50.524;8.684;2022-11-20T10:47:16;98891.13;;;2.26;100.00
41202;BME280;26936;50.524;8.684;2022-11-20T10:49:43;98893.47;;;2.28;100.00
41202;BME280;26936;50.524;8.684;2022-11-20T10:54:47;98877.63;;;2.25;100.00
41202;BME280;26936;50.524;8.684;2022-11-20T11:00:12;98893.81;;;2.33;100.00
41202;BME280;26936;50.524;8.684;2022-11-20T11:02:44;98885.94;;;2.28;100.00
41202;BME280;26936;50.524;8.684;2022-11-20T11:07:48;98878.41;;;2.25;100.00
41202;BME280;26936;50.524;8.684;2022-11-20T11:10:17;98884.38;;;2.24;100.00
41202;BME280;26936;50.524;8.684;2022-11-20T11:12:45;98881.09;;;2.36;100.00
41202;BME280;26936;50.524;8.684;2022-11-20T11:15:23;98872.81;;;2.29;100.00
41202;BME280;26936;50.524;8.684;2022-11-20T11:17:49;98866.03;;;2.33;100.00
41202;BME280;26936;50.524;8.684;2022-11-20T11:20:21;98860.44;;;2.37;100.00
41202;BME280;26936;50.524;8.684;2022-11-20T11:25:32;98852.81;;;2.48;100.00
41202;BME280;26936;50.524;8.684;2022-11-20T11:28:19;98843.97;;;2.56;100.00
41202;BME280;26936;50.524;8.684;2022-11-20T11:30:45;98841.09;;;2.67;100.00
41202;BME280;26936;50.524;8.684;2022-11-20T11:33:17;98847.50;;;2.64;100.00
41202;BME280;26936;50.524;8.684;2022-11-20T11:35:48;98839.84;;;2.71;100.00
41202;BME280;26936;50.524;8.684;2022-11-20T11:38:16;98839.06;;;2.71;100.00
41202;BME280;26936;50.524;8.684;2022-11-20T11:40:46;98841.03;;;2.74;100.00
41202;BME280;26936;50.524;8.684;2022-11-20T11:43:32;98844.59;;;2.74;100.00
41202;BME280;26936;50.524;8.684;2022-11-20T11:48:56;98832.06;;;2.93;100.00
41202;BME280;26936;50.524;8.684;2022-11-20T11:51:21;98839.13;;;3.01;100.00
41202;BME280;26936;50.524;8.684;2022-11-20T11:53:47;98833.41;;;3.12;100.00
41202;BME280;26936;50.524;8.684;2022-11-20T11:56:13;98835.38;;;3.15;100.00
41202;BME280;26936;50.524;8.684;2022-11-20T11:58:51;98836.13;;;3.19;100.00
41202;BME280;26936;50.524;8.684;2022-11-20T12:01:31;98822.91;;;3.26;100.00
41202;BME280;26936;50.524;8.684;2022-11-20T12:04:04;98823.59;;;3.34;100.00
41202;BME280;26936;50.524;8.684;2022-11-20T12:06:32;98818.47;;;3.32;100.00
41202;BME280;26936;50.524;8.684;2022-11-20T12:09:03;98817.16;;;3.40;100.00
41202;BME280;26936;50.524;8.684;2022-11-20T12:14:14;98816.97;;;3.51;100.00
41202;BME280;26936;50.524;8.684;2022-11-20T12:16:44;98813.00;;;3.52;100.00
41202;BME280;26936;50.524;8.684;2022-11-20T12:19:13;98797.56;;;3.47;100.00
41202;BME280;26936;50.524;8.684;2022-11-20T12:30:07;98799.50;;;3.50;100.00
41202;BME280;26936;50.524;8.684;2022-11-20T12:40:44;98786.25;;;3.31;100.00
41202;BME280;26936;50.524;8.684;2022-11-20T12:43:19;98790.03;;;3.18;100.00
41202;BME280;26936;50.524;8.684;2022-11-20T12:46:18;98787.34;;;3.11;100.00
41202;BME280;26936;50.524;8.684;2022-11-20T13:00:08;98780.88;;;3.17;100.00
41202;BME280;26936;50.524;8.684;2022-11-20T13:05:24;98773.59;;;3.00;100.00
41202;BME280;26936;50.524;8.684;2022-11-20T13:07:53;98773.50;;;3.04;100.00
41202;BME280;26936;50.524;8.684;2022-11-20T13:10:31;98766.34;;;3.06;100.00
41202;BME280;26936;50.524;8.684;2022-11-20T13:13:18;98764.66;;;3.12;100.00
41202;BME280;26936;50.524;8.684;2022-11-20T13:15:55;98766.13;;;3.20;100.00
41202;BME280;26936;50.524;8.684;2022-11-20T13:18:22;98764.34;;;3.07;100.00
41202;BME280;26936;50.524;8.684;2022-11-20T13:20:47;98759.19;;;3.05;100.00
41202;BME280;26936;50.524;8.684;2022-11-20T13:23:23;98747.59;;;2.80;100.00
41202;BME280;26936;50.524;8.684;2022-11-20T13:25:50;98744.66;;;2.91;100.00
41202;BME280;26936;50.524;8.684;2022-11-20T13:30:51;98735.78;;;3.03;100.00
41202;BME280;26936;50.524;8.684;2022-11-20T13:33:28;98728.69;;;2.98;100.00
41202;BME280;26936;50.524;8.684;2022-11-20T13:36:21;98741.97;;;2.87;100.00
41202;BME280;26936;50.524;8.684;2022-11-20T13:38:49;98732.81;;;2.87;100.00
41202;BME280;26936;50.524;8.684;2022-11-20T13:44:09;98743.28;;;3.06;100.00
41202;BME280;26936;50.524;8.684;2022-11-20T13:46:42;98738.53;;;3.06;100.00
41202;BME280;26936;50.524;8.684;2022-11-20T13:49:14;98738.09;;;3.08;100.00
41202;BME280;26936;50.524;8.684;2022-11-20T13:51:49;98727.91;;;2.98;100.00
41202;BME280;26936;50.524;8.684;2022-11-20T13:54:46;98733.94;;;2.93;100.00
41202;BME280;26936;50.524;8.684;2022-11-20T14:00:07;98728.81;;;2.88;100.00
41202;BME280;26936;50.524;8.684;2022-11-20T14:02:35;98726.16;;;2.81;100.00
41202;BME280;26936;50.524;8.684;2022-11-20T14:05:01;98725.53;;;2.96;100.00
41202;BME280;26936;50.524;8.684;2022-11-20T14:07:34;98712.13;;;2.88;100.00
41202;BME280;26936;50.524;8.684;2022-11-20T14:10:01;98707.38;;;2.88;100.00
41202;BME280;26936;50.524;8.684;2022-11-20T14:12:31;98712.72;;;2.75;100.00
41202;BME280;26936;50.524;8.684;2022-11-20T14:14:56;98710.44;;;2.67;100.00
41202;BME280;26936;50.524;8.684;2022-11-20T14:17:24;98707.56;;;2.40;100.00
41202;BME280;26936;50.524;8.684;2022-11-20T14:19:58;98700.13;;;2.67;100.00
41202;BME280;26936;50.524;8.684;2022-11-20T14:22:26;98705.16;;;2.76;100.00
41202;BME280;26936;50.524;8.684;2022-11-20T14:25:07;98695.31;;;2.68;100.00
41202;BME280;26936;50.524;8.684;2022-11-20T14:27:47;98683.22;;;2.51;100.00
41202;BME280;26936;50.524;8.684;2022-11-20T14:30:20;98665.91;;;2.40;100.00
41202;BME280;26936;50.524;8.684;2022-11-20T14:32:47;98670.41;;;2.27;100.00